sensor_id;sensor_type;location;lat;lon;timestamp;P1;durP1;ratioP1;P2;durP2;ratioP2
70126;SDS011;57491;42.694;23.314;2022-12-18T00:02:14;8.50;;;6.03;;
70126;SDS011;57491;42.694;23.314;2022-12-18T00:04:42;8.75;;;5.57;;
70126;SDS011;57491;42.694;23.314;2022-12-18T00:07:09;10.27;;;6.15;;
70126;SDS011;57491;42.694;23.314;2022-12-18T00:09:36;9.60;;;6.40;;
70126;SDS011;57491;42.694;23.314;2022-12-18T00:12:03;10.43;;;5.90;;
70126;SDS011;57491;42.694;23.314;2022-12-18T00:14:31;10.88;;;6.88;;
70126;SDS011;57491;42.694;23.314;2022-12-18T00:16:59;8.00;;;5.95;;
70126;SDS011;57491;42.694;23.314;2022-12-18T00:19:26;9.32;;;6.13;;
70126;SDS011;57491;42.694;23.314;2022-12-18T00:21:53;9.97;;;6.20;;
70126;SDS011;57491;42.694;23.314;2022-12-18T00:24:20;10.82;;;6.18;;
70126;SDS011;57491;42.694;23.314;2022-12-18T00:26:47;9.15;;;6.55;;
70126;SDS011;57491;42.694;23.314;2022-12-18T00:29:14;11.45;;;6.45;;
70126;SDS011;57491;42.694;23.314;2022-12-18T00:31:42;10.75;;;7.22;;
70126;SDS011;57491;42.694;23.314;2022-12-18T00:34:10;12.43;;;6.88;;
70126;SDS011;57491;42.694;23.314;2022-12-18T00:36:38;10.77;;;5.85;;
70126;SDS011;57491;42.694;23.314;2022-12-18T00:39:05;8.43;;;5.83;;
70126;SDS011;57491;42.694;23.314;2022-12-18T00:41:32;9.17;;;5.97;;
70126;SDS011;57491;42.694;23.314;2022-12-18T00:44:17;8.98;;;5.68;;
70126;SDS011;57491;42.694;23.314;2022-12-18T00:46:46;8.23;;;5.90;;
70126;SDS011;57491;42.694;23.314;2022-12-18T00:49:15;9.55;;;5.38;;
70126;SDS011;57491;42.694;23.314;2022-12-18T00:51:43;8.95;;;5.68;;
70126;SDS011;57491;42.694;23.314;2022-12-18T00:54:10;8.37;;;6.20;;
70126;SDS011;57491;42.694;23.314;2022-12-18T00:56:38;9.43;;;5.43;;
70126;SDS011;57491;42.694;23.314;2022-12-18T00:59:05;9.93;;;6.45;;
70126;SDS011;57491;42.694;23.314;2022-12-18T01:01:32;10.80;;;5.88;;
70126;SDS011;57491;42.694;23.314;2022-12-18T01:04:02;12.13;;;6.45;;
70126;SDS011;57491;42.694;23.314;2022-12-18T01:06:30;10.13;;;6.38;;
70126;SDS011;57491;42.694;23.314;2022-12-18T01:08:57;10.27;;;6.27;;
70126;SDS011;57491;42.694;23.314;2022-12-18T01:11:24;8.90;;;5.70;;
70126;SDS011;57491;42.694;23.314;2022-12-18T01:13:52;9.85;;;6.20;;
70126;SDS011;57491;42.694;23.314;2022-12-18T01:16:20;11.02;;;7.05;;
70126;SDS011;57491;42.694;23.314;2022-12-18T01:18:47;9.53;;;6.33;;
70126;SDS011;57491;42.694;23.314;2022-12-18T01:21:18;11.93;;;6.95;;
70126;SDS011;57491;42.694;23.314;2022-12-18T01:23:46;12.55;;;7.68;;
70126;SDS011;57491;42.694;23.314;2022-12-18T01:26:14;12.03;;;7.43;;
70126;SDS011;57491;42.694;23.314;2022-12-18T01:28:42;13.18;;;6.75;;
70126;SDS011;57491;42.694;23.314;2022-12-18T01:31:11;10.50;;;6.90;;
70126;SDS011;57491;42.694;23.314;2022-12-18T01:33:39;14.95;;;7.70;;
70126;SDS011;57491;42.694;23.314;2022-12-18T01:36:06;14.57;;;7.83;;
70126;SDS011;57491;42.694;23.314;2022-12-18T01:38:35;14.63;;;8.23;;
70126;SDS011;57491;42.694;23.314;2022-12-18T01:41:03;14.60;;;7.15;;
70126;SDS011;57491;42.694;23.314;2022-12-18T01:43:43;11.20;;;6.88;;
70126;SDS011;57491;42.694;23.314;2022-12-18T01:46:11;11.63;;;7.25;;
70126;SDS011;57491;42.694;23.314;2022-12-18T01:48:39;10.38;;;7.18;;
70126;SDS011;57491;42.694;23.314;2022-12-18T01:51:07;12.85;;;7.68;;
70126;SDS011;57491;42.694;23.314;2022-12-18T01:53:37;10.52;;;7.13;;
70126;SDS011;57491;42.694;23.314;2022-12-18T01:56:07;10.57;;;6.90;;
70126;SDS011;57491;42.694;23.314;2022-12-18T01:58:37;12.38;;;7.65;;
70126;SDS011;57491;42.694;23.314;2022-12-18T02:01:07;13.55;;;7.45;;
70126;SDS011;57491;42.694;23.314;2022-12-18T02:03:35;9.97;;;6.77;;
70126;SDS011;57491;42.694;23.314;2022-12-18T02:06:05;12.27;;;6.63;;
70126;SDS011;57491;42.694;23.314;2022-12-18T02:08:39;9.02;;;5.35;;
70126;SDS011;57491;42.694;23.314;2022-12-18T02:11:14;10.88;;;5.97;;
70126;SDS011;57491;42.694;23.314;2022-12-18T02:13:50;10.98;;;6.15;;
70126;SDS011;57491;42.694;23.314;2022-12-18T02:16:29;9.25;;;6.57;;
70126;SDS011;57491;42.694;23.314;2022-12-18T02:19:04;11.30;;;7.18;;
70126;SDS011;57491;42.694;23.314;2022-12-18T02:21:44;9.35;;;5.75;;
70126;SDS011;57491;42.694;23.314;2022-12-18T02:24:22;12.68;;;7.47;;
70126;SDS011;57491;42.694;23.314;2022-12-18T02:26:59;8.63;;;5.00;;
70126;SDS011;57491;42.694;23.314;2022-12-18T02:29:29;9.20;;;6.18;;
70126;SDS011;57491;42.694;23.314;2022-12-18T02:32:02;10.10;;;6.20;;
70126;SDS011;57491;42.694;23.314;2022-12-18T02:34:32;10.23;;;6.05;;
70126;SDS011;57491;42.694;23.314;2022-12-18T02:37:04;12.70;;;6.22;;
70126;SDS011;57491;42.694;23.314;2022-12-18T02:39:36;9.85;;;6.05;;
70126;SDS011;57491;42.694;23.314;2022-12-18T02:42:07;12.10;;;6.60;;
70126;SDS011;57491;42.694;23.314;2022-12-18T02:44:34;10.43;;;6.38;;
70126;SDS011;57491;42.694;23.314;2022-12-18T02:47:08;13.25;;;6.78;;
70126;SDS011;57491;42.694;23.314;2022-12-18T02:49:40;10.68;;;6.88;;
70126;SDS011;57491;42.694;23.314;2022-12-18T02:52:18;8.82;;;4.88;;
70126;SDS011;57491;42.694;23.314;2022-12-18T02:54:58;11.73;;;6.87;;
70126;SDS011;57491;42.694;23.314;2022-12-18T02:57:35;14.95;;;6.70;;
70126;SDS011;57491;42.694;23.314;2022-12-18T03:00:10;10.38;;;7.07;;
70126;SDS011;57491;42.694;23.314;2022-12-18T03:02:41;10.68;;;7.18;;
70126;SDS011;57491;42.694;23.314;2022-12-18T03:05:13;11.63;;;6.65;;
70126;SDS011;57491;42.694;23.314;2022-12-18T03:07:44;11.90;;;7.72;;
70126;SDS011;57491;42.694;23.314;2022-12-18T03:10:18;11.43;;;7.38;;
70126;SDS011;57491;42.694;23.314;2022-12-18T03:12:53;10.60;;;6.55;;
70126;SDS011;57491;42.694;23.314;2022-12-18T03:15:24;12.02;;;6.78;;
70126;SDS011;57491;42.694;23.314;2022-12-18T03:17:56;13.82;;;7.32;;
70126;SDS011;57491;42.694;23.314;2022-12-18T03:20:29;11.25;;;7.60;;
70126;SDS011;57491;42.694;23.314;2022-12-18T03:22:59;11.05;;;7.18;;
70126;SDS011;57491;42.694;23.314;2022-12-18T03:25:30;11.48;;;6.63;;
70126;SDS011;57491;42.694;23.314;2022-12-18T03:28:01;14.60;;;7.68;;
70126;SDS011;57491;42.694;23.314;2022-12-18T03:30:34;12.77;;;8.10;;
70126;SDS011;57491;42.694;23.314;2022-12-18T03:33:05;12.32;;;6.53;;
70126;SDS011;57491;42.694;23.314;2022-12-18T03:35:37;10.60;;;6.15;;
70126;SDS011;57491;42.694;23.314;2022-12-18T03:38:08;11.35;;;6.85;;
70126;SDS011;57491;42.694;23.314;2022-12-18T03:40:40;13.93;;;6.65;;
70126;SDS011;57491;42.694;23.314;2022-12-18T03:43:20;12.13;;;7.32;;
70126;SDS011;57491;42.694;23.314;2022-12-18T03:46:02;11.15;;;6.15;;
70126;SDS011;57491;42.694;23.314;2022-12-18T03:48:34;11.02;;;5.57;;
70126;SDS011;57491;42.694;23.314;2022-12-18T03:51:05;11.70;;;6.72;;
70126;SDS011;57491;42.694;23.314;2022-12-18T03:53:37;11.15;;;7.40;;
70126;SDS011;57491;42.694;23.314;2022-12-18T03:56:11;11.63;;;6.53;;
70126;SDS011;57491;42.694;23.314;2022-12-18T03:58:43;10.25;;;6.28;;
70126;SDS011;57491;42.694;23.314;2022-12-18T04:01:13;10.10;;;6.13;;
70126;SDS011;57491;42.694;23.314;2022-12-18T04:03:42;10.48;;;6.10;;
70126;SDS011;57491;42.694;23.314;2022-12-18T04:06:12;11.43;;;6.78;;
70126;SDS011;57491;42.694;23.314;2022-12-18T04:08:41;11.68;;;6.65;;
70126;SDS011;57491;42.694;23.314;2022-12-18T04:11:09;14.48;;;6.35;;
70126;SDS011;57491;42.694;23.314;2022-12-18T04:13:37;14.80;;;7.47;;
70126;SDS011;57491;42.694;23.314;2022-12-18T04:16:06;13.10;;;7.78;;
70126;SDS011;57491;42.694;23.314;2022-12-18T04:18:34;13.00;;;7.60;;
70126;SDS011;57491;42.694;23.314;2022-12-18T04:21:02;14.88;;;8.32;;
70126;SDS011;57491;42.694;23.314;2022-12-18T04:23:29;12.68;;;7.40;;
70126;SDS011;57491;42.694;23.314;2022-12-18T04:25:56;12.57;;;7.55;;
70126;SDS011;57491;42.694;23.314;2022-12-18T04:28:23;14.27;;;8.25;;
70126;SDS011;57491;42.694;23.314;2022-12-18T04:30:50;14.10;;;7.90;;
70126;SDS011;57491;42.694;23.314;2022-12-18T04:33:19;13.43;;;7.77;;
70126;SDS011;57491;42.694;23.314;2022-12-18T04:35:46;10.98;;;7.22;;
70126;SDS011;57491;42.694;23.314;2022-12-18T04:38:13;12.00;;;7.75;;
70126;SDS011;57491;42.694;23.314;2022-12-18T04:40:40;15.60;;;8.57;;
70126;SDS011;57491;42.694;23.314;2022-12-18T04:43:08;12.95;;;8.55;;
70126;SDS011;57491;42.694;23.314;2022-12-18T04:45:35;14.00;;;8.73;;
70126;SDS011;57491;42.694;23.314;2022-12-18T04:48:02;15.07;;;8.52;;
70126;SDS011;57491;42.694;23.314;2022-12-18T04:52:58;15.63;;;8.35;;
70126;SDS011;57491;42.694;23.314;2022-12-18T04:55:25;12.88;;;7.40;;
70126;SDS011;57491;42.694;23.314;2022-12-18T04:57:53;17.33;;;9.25;;
70126;SDS011;57491;42.694;23.314;2022-12-18T05:00:20;16.05;;;8.95;;
70126;SDS011;57491;42.694;23.314;2022-12-18T05:02:47;17.70;;;9.27;;
70126;SDS011;57491;42.694;23.314;2022-12-18T05:05:15;17.55;;;10.15;;
70126;SDS011;57491;42.694;23.314;2022-12-18T05:07:44;19.45;;;9.80;;
70126;SDS011;57491;42.694;23.314;2022-12-18T05:10:11;17.25;;;9.20;;
70126;SDS011;57491;42.694;23.314;2022-12-18T05:12:38;16.08;;;8.63;;
70126;SDS011;57491;42.694;23.314;2022-12-18T05:15:23;17.85;;;9.88;;
70126;SDS011;57491;42.694;23.314;2022-12-18T05:17:50;19.13;;;10.35;;
70126;SDS011;57491;42.694;23.314;2022-12-18T05:20:18;18.53;;;9.73;;
70126;SDS011;57491;42.694;23.314;2022-12-18T05:22:46;18.15;;;9.93;;
70126;SDS011;57491;42.694;23.314;2022-12-18T05:25:13;18.08;;;9.65;;
70126;SDS011;57491;42.694;23.314;2022-12-18T05:27:41;18.10;;;9.18;;
70126;SDS011;57491;42.694;23.314;2022-12-18T05:30:08;18.50;;;10.83;;
70126;SDS011;57491;42.694;23.314;2022-12-18T05:35:03;17.08;;;9.50;;
70126;SDS011;57491;42.694;23.314;2022-12-18T05:37:32;20.63;;;10.23;;
70126;SDS011;57491;42.694;23.314;2022-12-18T05:40:01;21.15;;;10.23;;
70126;SDS011;57491;42.694;23.314;2022-12-18T05:42:28;20.25;;;10.98;;
70126;SDS011;57491;42.694;23.314;2022-12-18T05:44:55;15.98;;;8.80;;
70126;SDS011;57491;42.694;23.314;2022-12-18T05:47:22;23.55;;;11.70;;
70126;SDS011;57491;42.694;23.314;2022-12-18T05:49:50;21.67;;;10.07;;
70126;SDS011;57491;42.694;23.314;2022-12-18T05:52:17;20.63;;;10.45;;
70126;SDS011;57491;42.694;23.314;2022-12-18T05:54:44;21.98;;;11.15;;
70126;SDS011;57491;42.694;23.314;2022-12-18T05:57:12;20.70;;;11.50;;
70126;SDS011;57491;42.694;23.314;2022-12-18T05:59:40;21.13;;;10.57;;
70126;SDS011;57491;42.694;23.314;2022-12-18T06:02:07;19.88;;;10.27;;
70126;SDS011;57491;42.694;23.314;2022-12-18T06:04:34;20.85;;;10.05;;
70126;SDS011;57491;42.694;23.314;2022-12-18T06:07:01;22.80;;;10.93;;
70126;SDS011;57491;42.694;23.314;2022-12-18T06:09:28;18.30;;;10.55;;
70126;SDS011;57491;42.694;23.314;2022-12-18T06:11:55;24.33;;;10.80;;
70126;SDS011;57491;42.694;23.314;2022-12-18T06:14:24;26.30;;;11.15;;
70126;SDS011;57491;42.694;23.314;2022-12-18T06:16:51;21.20;;;10.82;;
70126;SDS011;57491;42.694;23.314;2022-12-18T06:19:18;21.33;;;9.73;;
70126;SDS011;57491;42.694;23.314;2022-12-18T06:21:45;19.73;;;10.38;;
70126;SDS011;57491;42.694;23.314;2022-12-18T06:24:12;20.77;;;11.13;;
70126;SDS011;57491;42.694;23.314;2022-12-18T06:26:40;20.73;;;9.82;;
70126;SDS011;57491;42.694;23.314;2022-12-18T06:29:07;17.80;;;10.07;;
70126;SDS011;57491;42.694;23.314;2022-12-18T06:31:35;21.00;;;11.07;;
70126;SDS011;57491;42.694;23.314;2022-12-18T06:34:03;20.77;;;10.40;;
70126;SDS011;57491;42.694;23.314;2022-12-18T06:36:31;21.88;;;10.68;;
70126;SDS011;57491;42.694;23.314;2022-12-18T06:38:58;18.83;;;10.80;;
70126;SDS011;57491;42.694;23.314;2022-12-18T06:41:25;22.40;;;11.38;;
70126;SDS011;57491;42.694;23.314;2022-12-18T06:43:53;16.70;;;9.65;;
70126;SDS011;57491;42.694;23.314;2022-12-18T06:46:20;20.47;;;10.87;;
70126;SDS011;57491;42.694;23.314;2022-12-18T06:48:49;23.08;;;10.93;;
70126;SDS011;57491;42.694;23.314;2022-12-18T06:51:17;23.00;;;10.70;;
70126;SDS011;57491;42.694;23.314;2022-12-18T06:53:45;22.95;;;11.98;;
70126;SDS011;57491;42.694;23.314;2022-12-18T06:56:13;18.38;;;10.00;;
70126;SDS011;57491;42.694;23.314;2022-12-18T06:58:40;20.48;;;9.70;;
70126;SDS011;57491;42.694;23.314;2022-12-18T07:01:08;18.65;;;10.18;;
70126;SDS011;57491;42.694;23.314;2022-12-18T07:03:37;15.57;;;8.98;;
70126;SDS011;57491;42.694;23.314;2022-12-18T07:06:06;27.27;;;11.55;;
70126;SDS011;57491;42.694;23.314;2022-12-18T07:08:38;22.33;;;9.65;;
70126;SDS011;57491;42.694;23.314;2022-12-18T07:11:05;20.00;;;10.90;;
70126;SDS011;57491;42.694;23.314;2022-12-18T07:13:33;21.05;;;10.00;;
70126;SDS011;57491;42.694;23.314;2022-12-18T07:16:04;19.70;;;10.10;;
70126;SDS011;57491;42.694;23.314;2022-12-18T07:18:32;21.05;;;10.55;;
70126;SDS011;57491;42.694;23.314;2022-12-18T07:21:02;20.95;;;10.98;;
70126;SDS011;57491;42.694;23.314;2022-12-18T07:23:33;21.05;;;11.15;;
70126;SDS011;57491;42.694;23.314;2022-12-18T07:26:01;22.35;;;11.93;;
70126;SDS011;57491;42.694;23.314;2022-12-18T07:28:29;25.17;;;12.18;;
70126;SDS011;57491;42.694;23.314;2022-12-18T07:30:57;27.25;;;12.65;;
70126;SDS011;57491;42.694;23.314;2022-12-18T07:33:24;27.25;;;12.32;;
70126;SDS011;57491;42.694;23.314;2022-12-18T07:35:52;28.30;;;13.30;;
70126;SDS011;57491;42.694;23.314;2022-12-18T07:38:19;23.88;;;12.43;;
70126;SDS011;57491;42.694;23.314;2022-12-18T07:40:47;24.03;;;13.20;;
70126;SDS011;57491;42.694;23.314;2022-12-18T07:43:14;23.60;;;12.05;;
70126;SDS011;57491;42.694;23.314;2022-12-18T07:45:42;26.10;;;12.82;;
70126;SDS011;57491;42.694;23.314;2022-12-18T07:48:09;25.60;;;13.27;;
70126;SDS011;57491;42.694;23.314;2022-12-18T07:50:37;24.92;;;12.90;;
70126;SDS011;57491;42.694;23.314;2022-12-18T07:53:04;23.17;;;12.45;;
70126;SDS011;57491;42.694;23.314;2022-12-18T07:55:31;23.23;;;12.77;;
70126;SDS011;57491;42.694;23.314;2022-12-18T07:58:01;28.33;;;13.18;;
70126;SDS011;57491;42.694;23.314;2022-12-18T08:00:29;28.60;;;13.30;;
70126;SDS011;57491;42.694;23.314;2022-12-18T08:02:57;24.02;;;12.90;;
70126;SDS011;57491;42.694;23.314;2022-12-18T08:05:24;23.17;;;11.80;;
70126;SDS011;57491;42.694;23.314;2022-12-18T08:07:51;23.65;;;12.27;;
70126;SDS011;57491;42.694;23.314;2022-12-18T08:10:18;23.17;;;11.40;;
70126;SDS011;57491;42.694;23.314;2022-12-18T08:12:45;27.77;;;13.70;;
70126;SDS011;57491;42.694;23.314;2022-12-18T08:15:17;32.40;;;14.27;;
70126;SDS011;57491;42.694;23.314;2022-12-18T08:17:44;25.00;;;13.55;;
70126;SDS011;57491;42.694;23.314;2022-12-18T08:20:12;25.65;;;13.18;;
70126;SDS011;57491;42.694;23.314;2022-12-18T08:22:40;27.35;;;13.35;;
70126;SDS011;57491;42.694;23.314;2022-12-18T08:25:07;30.25;;;12.65;;
70126;SDS011;57491;42.694;23.314;2022-12-18T08:27:35;27.75;;;14.23;;
70126;SDS011;57491;42.694;23.314;2022-12-18T08:30:02;23.90;;;12.83;;
70126;SDS011;57491;42.694;23.314;2022-12-18T08:32:31;23.83;;;12.05;;
70126;SDS011;57491;42.694;23.314;2022-12-18T08:34:59;27.05;;;13.93;;
70126;SDS011;57491;42.694;23.314;2022-12-18T08:37:26;26.13;;;12.07;;
70126;SDS011;57491;42.694;23.314;2022-12-18T08:39:53;28.90;;;14.07;;
70126;SDS011;57491;42.694;23.314;2022-12-18T08:42:20;27.80;;;13.10;;
70126;SDS011;57491;42.694;23.314;2022-12-18T08:45:04;29.73;;;14.10;;
70126;SDS011;57491;42.694;23.314;2022-12-18T08:50:00;28.42;;;13.82;;
70126;SDS011;57491;42.694;23.314;2022-12-18T08:52:27;27.08;;;14.07;;
70126;SDS011;57491;42.694;23.314;2022-12-18T08:54:54;28.27;;;13.05;;
70126;SDS011;57491;42.694;23.314;2022-12-18T08:57:21;23.85;;;12.07;;
70126;SDS011;57491;42.694;23.314;2022-12-18T08:59:48;25.40;;;12.15;;
70126;SDS011;57491;42.694;23.314;2022-12-18T09:02:15;19.77;;;10.10;;
70126;SDS011;57491;42.694;23.314;2022-12-18T09:04:44;24.63;;;12.27;;
70126;SDS011;57491;42.694;23.314;2022-12-18T09:07:13;25.77;;;11.85;;
70126;SDS011;57491;42.694;23.314;2022-12-18T09:09:40;23.67;;;12.23;;
70126;SDS011;57491;42.694;23.314;2022-12-18T09:12:07;24.13;;;11.52;;
70126;SDS011;57491;42.694;23.314;2022-12-18T09:14:34;22.73;;;11.68;;
70126;SDS011;57491;42.694;23.314;2022-12-18T09:17:01;22.08;;;12.38;;
70126;SDS011;57491;42.694;23.314;2022-12-18T09:19:28;23.08;;;11.48;;
70126;SDS011;57491;42.694;23.314;2022-12-18T09:21:57;26.42;;;12.40;;
70126;SDS011;57491;42.694;23.314;2022-12-18T09:24:24;25.67;;;11.40;;
70126;SDS011;57491;42.694;23.314;2022-12-18T09:26:52;23.15;;;11.48;;
70126;SDS011;57491;42.694;23.314;2022-12-18T09:29:20;18.17;;;10.63;;
70126;SDS011;57491;42.694;23.314;2022-12-18T09:31:47;24.98;;;12.45;;
70126;SDS011;57491;42.694;23.314;2022-12-18T09:34:15;25.38;;;11.52;;
70126;SDS011;57491;42.694;23.314;2022-12-18T09:36:42;23.42;;;12.45;;
70126;SDS011;57491;42.694;23.314;2022-12-18T09:39:11;23.90;;;11.40;;
70126;SDS011;57491;42.694;23.314;2022-12-18T09:41:43;22.20;;;10.50;;
70126;SDS011;57491;42.694;23.314;2022-12-18T09:44:18;23.08;;;13.18;;
70126;SDS011;57491;42.694;23.314;2022-12-18T09:46:52;18.42;;;10.77;;
70126;SDS011;57491;42.694;23.314;2022-12-18T09:49:25;23.13;;;12.10;;
70126;SDS011;57491;42.694;23.314;2022-12-18T09:51:56;22.38;;;11.18;;
70126;SDS011;57491;42.694;23.314;2022-12-18T09:54:32;18.92;;;10.77;;
70126;SDS011;57491;42.694;23.314;2022-12-18T09:57:04;21.63;;;10.93;;
70126;SDS011;57491;42.694;23.314;2022-12-18T09:59:33;18.90;;;9.98;;
70126;SDS011;57491;42.694;23.314;2022-12-18T10:02:11;20.42;;;10.77;;
70126;SDS011;57491;42.694;23.314;2022-12-18T10:04:41;18.38;;;10.02;;
70126;SDS011;57491;42.694;23.314;2022-12-18T10:07:09;19.00;;;9.52;;
70126;SDS011;57491;42.694;23.314;2022-12-18T10:09:46;17.35;;;9.18;;
70126;SDS011;57491;42.694;23.314;2022-12-18T10:12:25;20.50;;;10.95;;
70126;SDS011;57491;42.694;23.314;2022-12-18T10:15:00;23.00;;;10.90;;
70126;SDS011;57491;42.694;23.314;2022-12-18T10:17:35;25.85;;;11.52;;
70126;SDS011;57491;42.694;23.314;2022-12-18T10:20:13;18.42;;;10.60;;
70126;SDS011;57491;42.694;23.314;2022-12-18T10:22:47;22.05;;;10.95;;
70126;SDS011;57491;42.694;23.314;2022-12-18T10:25:28;23.70;;;12.02;;
70126;SDS011;57491;42.694;23.314;2022-12-18T10:28:07;22.23;;;12.27;;
70126;SDS011;57491;42.694;23.314;2022-12-18T10:30:36;22.45;;;11.18;;
70126;SDS011;57491;42.694;23.314;2022-12-18T10:33:05;19.88;;;10.75;;
70126;SDS011;57491;42.694;23.314;2022-12-18T10:35:37;21.70;;;11.27;;
70126;SDS011;57491;42.694;23.314;2022-12-18T10:38:20;20.27;;;10.85;;
70126;SDS011;57491;42.694;23.314;2022-12-18T10:40:51;20.30;;;10.63;;
70126;SDS011;57491;42.694;23.314;2022-12-18T10:43:21;21.92;;;11.43;;
70126;SDS011;57491;42.694;23.314;2022-12-18T10:48:47;28.25;;;12.70;;
70126;SDS011;57491;42.694;23.314;2022-12-18T10:51:22;26.17;;;13.52;;
70126;SDS011;57491;42.694;23.314;2022-12-18T10:53:52;26.33;;;11.57;;
70126;SDS011;57491;42.694;23.314;2022-12-18T10:56:24;30.55;;;14.85;;
70126;SDS011;57491;42.694;23.314;2022-12-18T10:58:57;18.42;;;9.35;;
70126;SDS011;57491;42.694;23.314;2022-12-18T11:01:27;20.50;;;10.77;;
70126;SDS011;57491;42.694;23.314;2022-12-18T11:03:59;25.80;;;13.75;;
70126;SDS011;57491;42.694;23.314;2022-12-18T11:06:28;21.98;;;10.05;;
70126;SDS011;57491;42.694;23.314;2022-12-18T11:08:59;22.20;;;11.13;;
70126;SDS011;57491;42.694;23.314;2022-12-18T11:11:29;19.70;;;10.20;;
70126;SDS011;57491;42.694;23.314;2022-12-18T11:14:01;20.85;;;10.77;;
70126;SDS011;57491;42.694;23.314;2022-12-18T11:16:31;21.58;;;10.65;;
70126;SDS011;57491;42.694;23.314;2022-12-18T11:19:10;22.13;;;10.75;;
70126;SDS011;57491;42.694;23.314;2022-12-18T11:21:46;21.67;;;11.48;;
70126;SDS011;57491;42.694;23.314;2022-12-18T11:24:19;20.73;;;11.47;;
70126;SDS011;57491;42.694;23.314;2022-12-18T11:26:50;22.73;;;11.48;;
70126;SDS011;57491;42.694;23.314;2022-12-18T11:29:18;23.52;;;12.02;;
70126;SDS011;57491;42.694;23.314;2022-12-18T11:31:57;20.27;;;10.15;;
70126;SDS011;57491;42.694;23.314;2022-12-18T11:34:48;21.70;;;12.05;;
70126;SDS011;57491;42.694;23.314;2022-12-18T11:37:20;28.05;;;13.20;;
70126;SDS011;57491;42.694;23.314;2022-12-18T11:39:49;22.55;;;12.55;;
70126;SDS011;57491;42.694;23.314;2022-12-18T11:42:25;22.52;;;11.77;;
70126;SDS011;57491;42.694;23.314;2022-12-18T11:44:59;21.13;;;10.70;;
70126;SDS011;57491;42.694;23.314;2022-12-18T11:47:34;22.00;;;11.68;;
70126;SDS011;57491;42.694;23.314;2022-12-18T11:50:10;20.50;;;11.02;;
70126;SDS011;57491;42.694;23.314;2022-12-18T11:52:42;24.02;;;11.93;;
70126;SDS011;57491;42.694;23.314;2022-12-18T11:55:10;22.88;;;12.68;;
70126;SDS011;57491;42.694;23.314;2022-12-18T11:57:44;22.10;;;12.40;;
70126;SDS011;57491;42.694;23.314;2022-12-18T12:00:18;22.75;;;12.18;;
70126;SDS011;57491;42.694;23.314;2022-12-18T12:02:51;22.50;;;11.77;;
70126;SDS011;57491;42.694;23.314;2022-12-18T12:05:39;26.75;;;13.50;;
70126;SDS011;57491;42.694;23.314;2022-12-18T12:08:18;28.35;;;14.75;;
70126;SDS011;57491;42.694;23.314;2022-12-18T12:10:54;27.80;;;13.07;;
70126;SDS011;57491;42.694;23.314;2022-12-18T12:13:33;25.45;;;13.25;;
70126;SDS011;57491;42.694;23.314;2022-12-18T12:16:09;22.17;;;11.15;;
70126;SDS011;57491;42.694;23.314;2022-12-18T12:18:47;26.88;;;13.05;;
70126;SDS011;57491;42.694;23.314;2022-12-18T12:21:23;28.48;;;12.65;;
70126;SDS011;57491;42.694;23.314;2022-12-18T12:23:57;22.63;;;11.70;;
70126;SDS011;57491;42.694;23.314;2022-12-18T12:26:30;20.35;;;11.27;;
70126;SDS011;57491;42.694;23.314;2022-12-18T12:29:09;27.15;;;14.15;;
70126;SDS011;57491;42.694;23.314;2022-12-18T12:31:56;20.13;;;11.70;;
70126;SDS011;57491;42.694;23.314;2022-12-18T12:34:32;21.05;;;11.15;;
70126;SDS011;57491;42.694;23.314;2022-12-18T12:37:07;21.42;;;10.50;;
70126;SDS011;57491;42.694;23.314;2022-12-18T12:39:46;21.85;;;10.93;;
70126;SDS011;57491;42.694;23.314;2022-12-18T12:42:16;29.58;;;14.30;;
70126;SDS011;57491;42.694;23.314;2022-12-18T12:45:06;22.92;;;12.50;;
70126;SDS011;57491;42.694;23.314;2022-12-18T12:47:42;22.83;;;12.32;;
70126;SDS011;57491;42.694;23.314;2022-12-18T12:50:13;21.98;;;11.52;;
70126;SDS011;57491;42.694;23.314;2022-12-18T12:52:44;23.67;;;12.75;;
70126;SDS011;57491;42.694;23.314;2022-12-18T12:55:14;26.05;;;12.82;;
70126;SDS011;57491;42.694;23.314;2022-12-18T12:57:45;23.45;;;13.27;;
70126;SDS011;57491;42.694;23.314;2022-12-18T13:00:21;27.20;;;12.95;;
70126;SDS011;57491;42.694;23.314;2022-12-18T13:02:50;22.70;;;11.35;;
70126;SDS011;57491;42.694;23.314;2022-12-18T13:05:24;24.27;;;11.63;;
70126;SDS011;57491;42.694;23.314;2022-12-18T13:07:57;24.05;;;11.45;;
70126;SDS011;57491;42.694;23.314;2022-12-18T13:10:33;20.98;;;11.68;;
70126;SDS011;57491;42.694;23.314;2022-12-18T13:13:02;23.90;;;11.82;;
70126;SDS011;57491;42.694;23.314;2022-12-18T13:15:32;19.63;;;11.05;;
70126;SDS011;57491;42.694;23.314;2022-12-18T13:18:04;20.83;;;11.55;;
70126;SDS011;57491;42.694;23.314;2022-12-18T13:20:41;25.17;;;12.25;;
70126;SDS011;57491;42.694;23.314;2022-12-18T13:23:23;21.27;;;11.50;;
70126;SDS011;57491;42.694;23.314;2022-12-18T13:25:54;24.60;;;12.63;;
70126;SDS011;57491;42.694;23.314;2022-12-18T13:28:22;25.85;;;12.73;;
70126;SDS011;57491;42.694;23.314;2022-12-18T13:31:12;28.02;;;12.75;;
70126;SDS011;57491;42.694;23.314;2022-12-18T13:33:43;35.13;;;16.08;;
70126;SDS011;57491;42.694;23.314;2022-12-18T13:48:19;21.73;;;11.48;;
70126;SDS011;57491;42.694;23.314;2022-12-18T13:50:49;21.95;;;11.02;;
70126;SDS011;57491;42.694;23.314;2022-12-18T13:53:22;21.10;;;11.50;;
70126;SDS011;57491;42.694;23.314;2022-12-18T13:55:52;26.20;;;12.00;;
70126;SDS011;57491;42.694;23.314;2022-12-18T13:58:21;24.27;;;12.68;;
70126;SDS011;57491;42.694;23.314;2022-12-18T14:03:18;23.80;;;11.90;;
70126;SDS011;57491;42.694;23.314;2022-12-18T14:05:51;21.98;;;10.80;;
70126;SDS011;57491;42.694;23.314;2022-12-18T14:08:21;22.45;;;11.50;;
70126;SDS011;57491;42.694;23.314;2022-12-18T14:10:48;24.20;;;11.93;;
70126;SDS011;57491;42.694;23.314;2022-12-18T14:13:21;20.20;;;10.63;;
70126;SDS011;57491;42.694;23.314;2022-12-18T14:15:53;23.38;;;11.23;;
70126;SDS011;57491;42.694;23.314;2022-12-18T14:18:24;20.63;;;10.30;;
70126;SDS011;57491;42.694;23.314;2022-12-18T14:20:54;20.45;;;10.10;;
70126;SDS011;57491;42.694;23.314;2022-12-18T14:23:25;22.35;;;10.20;;
70126;SDS011;57491;42.694;23.314;2022-12-18T14:25:53;19.63;;;10.00;;
70126;SDS011;57491;42.694;23.314;2022-12-18T14:28:21;24.75;;;12.77;;
70126;SDS011;57491;42.694;23.314;2022-12-18T14:30:48;26.67;;;11.87;;
70126;SDS011;57491;42.694;23.314;2022-12-18T14:33:19;21.05;;;10.07;;
70126;SDS011;57491;42.694;23.314;2022-12-18T14:35:54;22.48;;;11.00;;
70126;SDS011;57491;42.694;23.314;2022-12-18T14:38:25;18.20;;;9.93;;
70126;SDS011;57491;42.694;23.314;2022-12-18T14:41:06;20.50;;;10.27;;
70126;SDS011;57491;42.694;23.314;2022-12-18T14:43:39;21.70;;;10.77;;
70126;SDS011;57491;42.694;23.314;2022-12-18T14:48:54;22.38;;;10.68;;
70126;SDS011;57491;42.694;23.314;2022-12-18T14:51:24;20.15;;;9.30;;
70126;SDS011;57491;42.694;23.314;2022-12-18T14:53:53;19.67;;;9.10;;
70126;SDS011;57491;42.694;23.314;2022-12-18T14:56:23;24.80;;;11.75;;
70126;SDS011;57491;42.694;23.314;2022-12-18T14:58:53;17.80;;;9.43;;
70126;SDS011;57491;42.694;23.314;2022-12-18T15:01:24;21.00;;;10.38;;
70126;SDS011;57491;42.694;23.314;2022-12-18T15:03:54;17.45;;;9.30;;